Time;durP1;ratioP1;P1;durP2;ratioP2;P2;SDS_P1;SDS_P2;PMS_P1;PMS_P2;Temp;Humidity;BMP_temperature;BMP_pressure;BME280_temperature;BME280_humidity;BME280_pressure;Samples;Min_cycle;Max_cycle;Signal;HPM_P1;HPM_P2
2022/03/03 00:02:23;;;;;;;;;70.75;56.25;;;;;10.76;100.00;101240.78;5091071;27;46216;-80
2022/03/03 00:04:48;;;;;;;;;71.25;56.00;;;;;10.52;100.00;101206.88;5108160;27;45189;-84
2022/03/03 00:07:14;;;;;;;;;71.75;56.00;;;;;10.89;100.00;101252.66;5106466;27;45678;-79
2022/03/03 00:09:39;;;;;;;;;75.75;56.25;;;;;10.88;100.00;101245.47;5106795;27;45259;-79
2022/03/03 00:12:05;;;;;;;;;70.75;52.50;;;;;10.89;100.00;101247.22;5099098;27;46356;-79
2022/03/03 00:14:32;;;;;;;;;74.00;55.00;;;;;10.82;100.00;101242.25;5082824;27;45402;-79
2022/03/03 00:16:57;;;;;;;;;69.00;53.75;;;;;10.45;100.00;101173.78;5094603;27;45031;-79
2022/03/03 00:19:23;;;;;;;;;66.50;52.00;;;;;10.70;100.00;101218.53;5095667;27;45251;-79
2022/03/03 00:21:48;;;;;;;;;71.25;56.50;;;;;10.55;100.00;101191.28;5105108;27;45362;-79
2022/03/03 00:24:13;;;;;;;;;66.50;51.00;;;;;10.86;100.00;101241.09;5108171;27;44993;-79
2022/03/03 00:26:39;;;;;;;;;74.25;56.00;;;;;10.86;100.00;101246.53;5107456;27;45222;-78
2022/03/03 00:29:04;;;;;;;;;71.50;55.00;;;;;10.71;100.00;101217.56;5106430;27;45248;-79
2022/03/03 00:31:30;;;;;;;;;71.00;54.25;;;;;10.65;100.00;101207.91;5092094;27;45385;-80
2022/03/03 00:33:55;;;;;;;;;65.75;51.25;;;;;10.73;100.00;101219.19;5105581;27;45205;-80
2022/03/03 00:36:20;;;;;;;;;71.25;55.50;;;;;10.86;100.00;101247.41;5091238;27;45143;-78
2022/03/03 00:38:47;;;;;;;;;71.75;57.00;;;;;10.60;100.00;101199.16;5104606;27;45202;-81
2022/03/03 00:41:12;;;;;;;;;69.00;52.50;;;;;10.79;100.00;101240.56;5098099;27;45601;-81
2022/03/03 00:43:37;;;;;;;;;71.00;55.00;;;;;10.10;100.00;101121.47;5104980;27;45188;-82
2022/03/03 00:46:03;;;;;;;;;72.25;53.25;;;;;10.87;100.00;101248.28;5094079;27;45168;-82
2022/03/03 00:48:29;;;;;;;;;68.75;55.25;;;;;10.09;100.00;101114.31;5094882;27;45093;-81
2022/03/03 00:50:55;;;;;;;;;70.00;55.75;;;;;10.41;100.00;101166.75;5104471;27;45569;-81
2022/03/03 00:53:20;;;;;;;;;70.75;55.25;;;;;10.88;100.00;101250.91;5082015;27;45126;-81
2022/03/03 00:55:45;;;;;;;;;70.25;55.50;;;;;10.22;100.00;101134.31;5113569;27;45200;-81
2022/03/03 00:58:11;;;;;;;;;73.00;57.00;;;;;10.89;100.00;101254.50;5120509;27;45071;-82
2022/03/03 01:00:36;;;;;;;;;73.50;56.25;;;;;10.88;100.00;101253.63;5100285;27;47026;-81
2022/03/03 01:03:01;;;;;;;;;75.50;56.75;;;;;10.68;100.00;101215.00;5114946;27;45078;-81
2022/03/03 01:05:27;;;;;;;;;72.75;57.75;;;;;10.89;100.00;101259.94;5125351;27;46259;-81
2022/03/03 01:07:52;;;;;;;;;70.50;56.50;;;;;10.57;100.00;101200.22;5111376;27;45295;-81
2022/03/03 01:10:18;;;;;;;;;72.00;54.50;;;;;10.87;100.00;101249.16;5110293;27;45332;-81
2022/03/03 01:12:43;;;;;;;;;71.00;56.25;;;;;10.71;100.00;101229.31;5112307;27;45242;-80
2022/03/03 01:15:10;;;;;;;;;69.25;53.50;;;;;10.86;100.00;101263.75;5114660;27;45089;-80
2022/03/03 01:17:36;;;;;;;;;63.25;49.50;;;;;10.86;100.00;101250.13;5111090;27;45186;-81
2022/03/03 01:20:02;;;;;;;;;76.75;58.25;;;;;10.85;100.00;101253.84;5111325;27;45617;-80
2022/03/03 01:22:27;;;;;;;;;70.50;56.75;;;;;10.68;100.00;101224.03;5123600;27;45224;-81
2022/03/03 01:24:53;;;;;;;;;71.50;55.75;;;;;10.86;100.00;101254.72;5128781;27;45346;-82
2022/03/03 01:27:19;;;;;;;;;70.25;56.25;;;;;10.84;100.00;101246.63;5116300;27;45281;-81
2022/03/03 01:29:44;;;;;;;;;75.00;57.75;;;;;10.37;100.00;101165.19;5122446;27;45650;-80
2022/03/03 01:32:10;;;;;;;;;73.50;56.75;;;;;10.84;100.00;101245.75;5119192;27;45425;-81
2022/03/03 01:34:36;;;;;;;;;69.75;56.75;;;;;10.84;100.00;101241.19;5119712;27;45352;-82
2022/03/03 01:37:01;;;;;;;;;73.50;57.00;;;;;10.73;100.00;101221.91;5114039;27;45166;-80
2022/03/03 01:39:27;;;;;;;;;68.50;53.75;;;;;10.34;100.00;101144.50;5114367;27;45158;-82
2022/03/03 01:41:52;;;;;;;;;71.50;55.50;;;;;10.82;100.00;101231.38;5125077;27;46431;-79
2022/03/03 01:44:18;;;;;;;;;70.75;56.25;;;;;10.83;100.00;101230.41;5112600;27;44996;-81
2022/03/03 01:46:55;;;;;;;;;76.25;58.50;;;;;9.93;100.00;101088.97;5119006;27;45119;-83
2022/03/03 01:49:23;;;;;;;;;70.75;56.50;;;;;10.47;100.00;101166.38;5114500;27;45233;-82
2022/03/03 01:51:48;;;;;;;;;71.50;55.75;;;;;10.18;100.00;101124.59;5110460;27;45106;-82
2022/03/03 01:54:15;;;;;;;;;69.50;53.50;;;;;10.83;100.00;101228.56;5128153;27;45311;-82
2022/03/03 01:56:41;;;;;;;;;70.50;54.75;;;;;10.84;100.00;101230.28;5131134;27;45265;-81
2022/03/03 01:59:08;;;;;;;;;75.00;53.00;;;;;10.84;100.00;101224.84;5127149;27;45669;-82
2022/03/03 02:01:35;;;;;;;;;69.00;55.00;;;;;10.86;100.00;101220.22;5119695;27;45091;-81
2022/03/03 02:04:04;;;;;;;;;69.25;55.00;;;;;10.80;100.00;101206.13;5116464;27;45083;-82
2022/03/03 02:06:30;;;;;;;;;68.50;56.25;;;;;10.91;100.00;101217.22;5109528;27;45073;-83
2022/03/03 02:08:55;;;;;;;;;73.25;56.75;;;;;10.63;100.00;101166.34;5109529;27;45441;-82
2022/03/03 02:11:21;;;;;;;;;70.50;55.50;;;;;10.94;100.00;101216.13;5107808;27;45264;-81
2022/03/03 02:13:46;;;;;;;;;75.50;57.00;;;;;10.95;100.00;101216.06;5124095;27;45048;-82
2022/03/03 02:16:12;;;;;;;;;70.25;53.50;;;;;10.96;100.00;101215.09;5121995;27;46012;-80
2022/03/03 02:18:42;;;;;;;;;70.50;54.25;;;;;10.97;100.00;101219.56;5127568;27;45174;-82
2022/03/03 02:21:13;;;;;;;;;69.75;54.25;;;;;10.82;100.00;101196.00;5129674;27;45316;-81
2022/03/03 02:23:38;;;;;;;;;71.00;56.25;;;;;11.00;100.00;101215.75;5130151;27;45208;-82
2022/03/03 02:26:06;;;;;;;;;70.75;54.50;;;;;11.02;100.00;101216.56;5098389;27;45402;-81
2022/03/03 02:28:32;;;;;;;;;74.50;56.25;;;;;10.80;100.00;101179.78;5113388;27;45537;-82
2022/03/03 02:30:58;;;;;;;;;63.25;50.25;;;;;11.03;100.00;101218.31;5128979;27;45481;-81
2022/03/03 02:33:23;;;;;;;;;68.00;53.50;;;;;11.06;100.00;101212.69;5109876;27;45147;-83
2022/03/03 02:35:49;;;;;;;;;64.25;51.25;;;;;10.80;100.00;101179.78;5109494;27;45322;-83
2022/03/03 02:38:14;;;;;;;;;66.25;53.25;;;;;11.02;100.00;101203.81;5126523;27;45139;-81
2022/03/03 02:40:40;;;;;;;;;71.25;52.50;;;;;11.08;100.00;101205.28;5116785;27;45126;-81
2022/03/03 02:43:05;;;;;;;;;67.75;51.75;;;;;11.04;100.00;101206.44;5117468;27;45372;-82
2022/03/03 02:45:30;;;;;;;;;68.00;54.00;;;;;10.67;100.00;101129.84;5118658;27;45318;-81
2022/03/03 02:47:56;;;;;;;;;65.25;52.25;;;;;11.05;100.00;101181.88;5129014;27;45015;-81
2022/03/03 02:50:25;;;;;;;;;70.00;55.50;;;;;10.47;100.00;101084.84;5129531;27;45086;-81
2022/03/03 02:52:50;;;;;;;;;69.75;54.25;;;;;10.68;100.00;101117.09;5123697;27;45182;-81
2022/03/03 02:55:16;;;;;;;;;62.75;52.25;;;;;11.17;100.00;101200.16;5111035;27;45005;-81
2022/03/03 02:57:54;;;;;;;;;64.75;52.25;;;;;11.05;100.00;101167.38;5119235;27;46015;-81
2022/03/03 03:00:27;;;;;;;;;68.75;55.00;;;;;10.92;100.00;101153.69;5128371;27;45265;-82
2022/03/03 03:02:54;;;;;;;;;66.75;53.50;;;;;11.22;100.00;101188.13;5128839;27;45198;-83
2022/03/03 03:05:20;;;;;;;;;63.00;51.75;;;;;10.87;100.00;101129.47;5113505;27;45229;-82
2022/03/03 03:07:45;;;;;;;;;61.75;46.50;;;;;11.10;100.00;101165.25;5118528;27;45134;-82
2022/03/03 03:10:11;;;;;;;;;65.75;51.50;;;;;10.81;100.00;101105.38;5110285;27;45227;-83
2022/03/03 03:12:36;;;;;;;;;70.25;55.00;;;;;11.01;100.00;101134.06;5108928;27;45146;-83
2022/03/03 03:15:02;;;;;;;;;68.25;53.50;;;;;11.03;100.00;101132.09;5109348;27;45429;-83
2022/03/03 03:17:27;;;;;;;;;60.50;49.00;;;;;11.28;100.00;101172.25;5121501;27;45343;-82
2022/03/03 03:19:53;;;;;;;;;63.25;51.00;;;;;10.58;100.00;101051.53;5128524;27;45160;-83
2022/03/03 03:22:18;;;;;;;;;65.75;51.50;;;;;11.29;100.00;101170.41;5109127;27;45088;-82
2022/03/03 03:24:43;;;;;;;;;70.25;51.00;;;;;11.28;100.00;101168.66;5119537;27;45689;-82
2022/03/03 03:27:09;;;;;;;;;64.00;50.75;;;;;11.16;100.00;101137.66;5121199;27;45686;-82
2022/03/03 03:29:34;;;;;;;;;58.00;49.50;;;;;11.29;100.00;101154.06;5109529;27;45109;-81
2022/03/03 03:31:59;;;;;;;;;63.00;52.00;;;;;11.29;100.00;101157.66;5100947;27;45345;-82
2022/03/03 03:34:25;;;;;;;;;70.75;55.75;;;;;10.83;100.00;101080.81;5112885;27;45097;-81
2022/03/03 03:36:50;;;;;;;;;73.00;54.25;;;;;11.22;100.00;101152.72;5121244;27;45223;-82
2022/03/03 03:39:16;;;;;;;;;67.75;48.50;;;;;11.00;100.00;101109.66;5108160;27;45383;-82
2022/03/03 03:41:43;;;;;;;;;67.25;51.50;;;;;11.01;100.00;101109.56;5109877;27;45158;-80
2022/03/03 03:44:09;;;;;;;;;69.75;52.75;;;;;11.26;100.00;101144.28;5118146;27;45128;-80
2022/03/03 03:46:35;;;;;;;;;69.75;52.50;;;;;11.17;100.00;101131.25;5124588;27;45872;-81
2022/03/03 03:49:00;;;;;;;;;64.00;52.25;;;;;10.90;100.00;101091.22;5127754;27;45561;-80
2022/03/03 03:51:26;;;;;;;;;68.50;53.50;;;;;11.25;100.00;101147.94;5109412;27;45198;-81
2022/03/03 03:53:51;;;;;;;;;67.00;53.00;;;;;11.25;100.00;101139.78;5119127;27;45182;-80
2022/03/03 03:56:16;;;;;;;;;66.75;53.00;;;;;11.25;100.00;101144.34;5098822;27;45163;-80
2022/03/03 03:58:42;;;;;;;;;67.75;52.25;;;;;11.18;100.00;101136.59;5075731;27;45278;-81
2022/03/03 04:01:07;;;;;;;;;63.75;51.00;;;;;11.03;100.00;101101.31;5107921;27;45308;-81
2022/03/03 04:03:32;;;;;;;;;65.50;51.50;;;;;11.25;100.00;101138.91;5107253;27;44992;-81
2022/03/03 04:05:58;;;;;;;;;70.50;51.75;;;;;11.01;100.00;101097.81;5107205;27;45477;-82
2022/03/03 04:08:23;;;;;;;;;68.00;52.00;;;;;10.89;100.00;101075.84;5108253;27;44994;-80
2022/03/03 04:10:48;;;;;;;;;64.25;51.25;;;;;11.16;100.00;101124.94;5068675;28;45181;-80
2022/03/03 04:13:15;;;;;;;;;60.25;49.00;;;;;11.24;100.00;101129.88;5088082;27;45009;-82
2022/03/03 04:15:41;;;;;;;;;64.25;51.25;;;;;11.24;100.00;101123.56;5096323;27;45544;-81
2022/03/03 04:18:07;;;;;;;;;67.25;48.75;;;;;11.03;100.00;101099.47;5102376;27;45181;-81
2022/03/03 04:20:33;;;;;;;;;65.00;52.00;;;;;10.93;100.00;101070.22;5091625;27;45104;-81
2022/03/03 04:22:58;;;;;;;;;65.25;52.50;;;;;11.24;100.00;101123.56;5072745;28;45133;-81
2022/03/03 04:25:23;;;;;;;;;66.00;51.50;;;;;11.06;100.00;101087.53;5100732;27;45656;-82
2022/03/03 04:27:49;;;;;;;;;65.00;50.75;;;;;11.25;100.00;101118.00;5103423;27;45143;-82
2022/03/03 04:30:15;;;;;;;;;68.50;51.25;;;;;11.26;100.00;101110.75;5092240;27;45090;-82
2022/03/03 04:32:41;;;;;;;;;65.75;51.25;;;;;10.99;100.00;101065.25;5093032;27;45143;-81
2022/03/03 04:35:08;;;;;;;;;65.50;51.00;;;;;11.09;100.00;101076.41;5100805;27;45055;-81
2022/03/03 04:37:34;;;;;;;;;62.25;49.00;;;;;11.10;100.00;101078.16;5090864;27;45238;-82
2022/03/03 04:39:59;;;;;;;;;65.50;52.00;;;;;11.25;100.00;101101.66;5099759;27;45219;-82
2022/03/03 04:42:25;;;;;;;;;62.00;50.00;;;;;10.94;100.00;101042.91;5091635;27;45349;-82
2022/03/03 04:44:50;;;;;;;;;71.00;51.75;;;;;11.24;100.00;101096.34;5090648;27;45579;-81
2022/03/03 04:47:15;;;;;;;;;63.50;51.00;;;;;11.23;100.00;101100.03;5090744;27;45152;-81
2022/03/03 04:49:41;;;;;;;;;61.75;50.25;;;;;11.22;100.00;101099.16;5103088;27;45068;-81
2022/03/03 04:52:06;;;;;;;;;61.00;49.75;;;;;11.21;100.00;101089.25;5090598;27;45123;-81
2022/03/03 04:54:32;;;;;;;;;61.75;49.50;;;;;11.09;100.00;101065.53;5091046;27;45540;-81
2022/03/03 04:56:57;;;;;;;;;60.00;49.00;;;;;10.70;100.00;100999.13;5109355;27;45086;-80
2022/03/03 04:59:26;;;;;;;;;63.00;50.00;;;;;10.80;100.00;101005.72;5115345;27;45599;-79
2022/03/03 05:01:51;;;;;;;;;62.25;48.00;;;;;11.22;100.00;101084.69;5131466;27;45239;-79
2022/03/03 05:04:18;;;;;;;;;62.25;48.25;;;;;11.22;100.00;101081.97;5111224;27;45169;-81
2022/03/03 05:06:47;;;;;;;;;61.25;50.25;;;;;11.22;100.00;101079.25;5121885;27;45154;-81
2022/03/03 05:09:13;;;;;;;;;61.50;50.00;;;;;11.14;100.00;101069.72;5123746;27;45116;-79
2022/03/03 05:11:41;;;;;;;;;60.00;49.00;;;;;11.07;100.00;101054.75;5121946;27;45173;-80
2022/03/03 05:14:07;;;;;;;;;63.75;49.00;;;;;11.08;100.00;101064.66;5121325;27;45241;-80
2022/03/03 05:16:33;;;;;;;;;62.25;45.00;;;;;11.22;100.00;101082.84;5117281;27;45007;-80
2022/03/03 05:18:59;;;;;;;;;58.00;48.00;;;;;11.23;100.00;101081.00;5122989;27;45056;-78
2022/03/03 05:21:25;;;;;;;;;59.50;47.50;;;;;10.69;100.00;100991.91;5110607;27;45127;-79
2022/03/03 05:23:50;;;;;;;;;57.25;47.00;;;;;11.22;100.00;101082.84;5117404;27;45608;-79
2022/03/03 05:26:15;;;;;;;;;61.00;49.25;;;;;11.21;100.00;101085.66;5131170;27;45173;-81
2022/03/03 05:28:42;;;;;;;;;60.25;48.50;;;;;11.21;100.00;101082.94;5111507;27;45252;-81
2022/03/03 05:31:08;;;;;;;;;63.75;50.50;;;;;11.20;100.00;101081.16;5101998;27;45316;-80
2022/03/03 05:33:33;;;;;;;;;58.00;48.75;;;;;11.11;100.00;101064.47;5119232;27;45968;-79
2022/03/03 05:36:02;;;;;;;;;63.75;48.75;;;;;10.99;100.00;101029.00;5128676;27;45518;-79
2022/03/03 05:38:30;;;;;;;;;58.00;47.50;;;;;11.22;100.00;101081.97;5122969;27;45070;-79
2022/03/03 05:40:57;;;;;;;;;60.00;49.75;;;;;11.07;100.00;101057.47;5129202;27;45096;-78
2022/03/03 05:43:24;;;;;;;;;59.00;47.25;;;;;10.56;100.00;100980.97;5114971;27;46084;-80
2022/03/03 05:45:50;;;;;;;;;61.25;46.50;;;;;9.73;100.00;100848.53;5117839;27;45295;-78
2022/03/03 05:48:17;;;;;;;;;58.75;48.50;;;;;11.16;100.00;101069.63;5123122;27;45382;-80
2022/03/03 05:50:43;;;;;;;;;59.00;47.00;;;;;10.46;100.00;100954.47;5110393;27;45104;-82
2022/03/03 05:53:09;;;;;;;;;60.00;47.50;;;;;10.49;100.00;100978.72;5118715;27;45639;-81
2022/03/03 05:55:50;;;;;;;;;70.25;50.50;;;;;10.27;100.00;100933.88;5128743;27;46154;-81
2022/03/03 05:58:18;;;;;;;;;59.75;45.50;;;;;9.77;100.00;100856.38;5112891;27;44992;-82
2022/03/03 06:00:54;;;;;;;;;61.50;49.00;;;;;10.88;100.00;101056.91;5130673;27;45429;-80
2022/03/03 06:03:21;;;;;;;;;56.50;46.25;;;;;10.81;100.00;101018.34;5118662;27;46067;-81
2022/03/03 06:05:53;;;;;;;;;64.00;49.00;;;;;11.21;100.00;101086.53;5124758;27;45109;-80
2022/03/03 06:08:30;;;;;;;;;56.25;45.25;;;;;11.22;100.00;101076.53;5109687;27;45153;-79
2022/03/03 06:11:01;;;;;;;;;57.25;46.00;;;;;11.17;100.00;101069.53;5130222;27;45500;-82
2022/03/03 06:13:32;;;;;;;;;53.75;43.50;;;;;11.22;100.00;101081.97;5114862;27;45920;-83
2022/03/03 06:15:57;;;;;;;;;56.50;43.25;;;;;10.89;100.00;101020.56;5109859;27;45147;-82
2022/03/03 06:18:25;;;;;;;;;60.50;48.25;;;;;10.53;100.00;100958.53;5110056;27;45192;-83
2022/03/03 06:20:52;;;;;;;;;52.00;41.75;;;;;11.23;100.00;101087.31;5118649;27;45160;-81
2022/03/03 06:23:18;;;;;;;;;54.50;43.75;;;;;11.24;100.00;101094.50;5115593;27;45164;-81
2022/03/03 06:25:44;;;;;;;;;52.00;40.50;;;;;10.64;100.00;100994.97;5109724;27;45079;-80
2022/03/03 06:28:10;;;;;;;;;57.25;44.25;;;;;11.25;100.00;101092.63;5124633;27;45052;-80
2022/03/03 06:30:36;;;;;;;;;51.75;38.75;;;;;11.25;100.00;101103.53;5129972;27;45104;-80
2022/03/03 06:33:03;;;;;;;;;50.25;39.50;;;;;11.13;100.00;101077.97;5117796;27;45524;-79
2022/03/03 06:35:35;;;;;;;;;52.50;43.00;;;;;11.21;100.00;101093.84;5129542;27;45257;-82
2022/03/03 06:38:02;;;;;;;;;55.50;41.75;;;;;11.11;100.00;101077.22;5131148;27;45608;-82
2022/03/03 06:40:27;;;;;;;;;51.50;43.25;;;;;11.27;100.00;101096.16;5111299;27;45323;-83
2022/03/03 06:42:53;;;;;;;;;51.50;40.25;;;;;10.90;100.00;101044.09;5118032;27;45157;-80
2022/03/03 06:45:25;;;;;;;;;50.50;38.75;;;;;10.88;100.00;101037.88;5110522;27;45350;-81
2022/03/03 06:47:53;;;;;;;;;49.50;39.25;;;;;10.52;100.00;100978.53;5109136;27;45409;-83
2022/03/03 06:50:19;;;;;;;;;52.25;40.50;;;;;10.80;100.00;101029.34;5129866;27;45094;-82
2022/03/03 06:52:46;;;;;;;;;44.75;39.00;;;;;11.27;100.00;101113.34;5116359;27;45338;-83
2022/03/03 06:55:13;;;;;;;;;47.00;39.50;;;;;11.27;100.00;101112.47;5116581;27;45099;-83
2022/03/03 06:57:40;;;;;;;;;50.50;38.50;;;;;11.29;100.00;101118.69;5128447;27;45088;-84
2022/03/03 07:00:06;;;;;;;;;53.75;41.00;;;;;10.90;100.00;101050.41;5129365;27;45343;-83
2022/03/03 07:02:33;;;;;;;;;51.25;42.50;;;;;11.29;100.00;101110.53;5127983;27;45169;-82
2022/03/03 07:05:01;;;;;;;;;57.50;45.50;;;;;11.28;100.00;101103.34;5111017;27;45207;-81
2022/03/03 07:07:27;;;;;;;;;47.75;41.75;;;;;9.41;100.00;100790.81;5119038;27;45614;-79
2022/03/03 07:09:53;;;;;;;;;50.25;41.75;;;;;10.93;100.00;101049.31;5129221;27;45141;-77
2022/03/03 07:12:20;;;;;;;;;56.75;42.50;;;;;10.43;100.00;100965.53;5128658;27;45164;-77
2022/03/03 07:14:45;;;;;;;;;52.50;41.75;;;;;11.31;100.00;101114.91;5118626;27;45122;-78
2022/03/03 07:17:37;;;;;;;;;52.25;42.25;;;;;11.30;100.00;101112.28;5113678;27;45297;-78
2022/03/03 07:20:05;;;;;;;;;53.50;43.25;;;;;11.30;100.00;101110.41;5129112;27;45063;-77
2022/03/03 07:22:38;;;;;;;;;44.50;39.50;;;;;10.70;100.00;101020.00;5116378;27;45230;-78
2022/03/03 07:25:10;;;;;;;;;54.50;42.75;;;;;11.30;100.00;101110.41;5124478;27;45076;-79
2022/03/03 07:27:41;;;;;;;;;49.00;41.50;;;;;9.68;100.00;100834.34;5123811;27;45228;-79
2022/03/03 07:30:10;;;;;;;;;50.00;43.25;;;;;11.08;100.00;101074.69;5122018;27;45283;-78
2022/03/03 07:33:07;;;;;;;;;58.00;44.25;;;;;10.96;100.00;101060.03;5112307;27;46157;-79
2022/03/03 07:35:34;;;;;;;;;50.75;42.50;;;;;10.37;100.00;100959.50;5110908;27;45263;-79
2022/03/03 07:38:25;;;;;;;;;56.50;44.25;;;;;11.18;100.00;101089.44;5125132;27;45056;-78
2022/03/03 07:40:51;;;;;;;;;56.00;46.50;;;;;11.00;100.00;101071.56;5103302;27;45470;-79
2022/03/03 07:43:18;;;;;;;;;49.75;41.00;;;;;11.34;100.00;101109.25;5097311;27;46359;-80
2022/03/03 07:45:45;;;;;;;;;54.50;42.50;;;;;11.32;100.00;101107.63;5119387;27;45009;-79
2022/03/03 07:48:12;;;;;;;;;52.75;44.00;;;;;11.33;100.00;101115.69;5126176;27;45047;-80
2022/03/03 07:50:39;;;;;;;;;54.50;44.25;;;;;10.88;100.00;101029.72;5129859;27;45281;-79
2022/03/03 07:53:13;;;;;;;;;44.00;38.75;;;;;11.35;100.00;101111.03;5111919;27;45505;-80
2022/03/03 07:55:47;;;;;;;;;54.75;43.25;;;;;11.25;100.00;101092.63;5123384;27;45389;-80
2022/03/03 07:58:18;;;;;;;;;51.50;40.50;;;;;10.98;100.00;101040.88;5110022;27;45145;-79
2022/03/03 08:00:48;;;;;;;;;55.75;42.50;;;;;11.41;100.00;101105.19;5108157;27;45162;-78
2022/03/03 08:03:18;;;;;;;;;52.25;40.50;;;;;11.43;100.00;101110.50;5109816;27;46149;-79
2022/03/03 08:05:46;;;;;;;;;56.75;44.75;;;;;11.43;100.00;101111.38;5123680;27;45193;-79
2022/03/03 08:08:15;;;;;;;;;56.75;45.00;;;;;11.47;100.00;101109.34;5108240;27;45242;-79
2022/03/03 08:10:42;;;;;;;;;59.00;44.75;;;;;10.74;100.00;100997.06;5121942;27;45276;-81
2022/03/03 08:13:11;;;;;;;;;44.75;38.75;;;;;11.32;100.00;101086.72;5110188;27;45592;-79
2022/03/03 08:15:38;;;;;;;;;40.75;36.75;;;;;9.92;100.00;100840.09;5108032;27;45166;-78
2022/03/03 08:18:04;;;;;;;;;58.00;45.00;;;;;11.53;100.00;101108.06;5113330;27;45197;-79
2022/03/03 08:20:30;;;;;;;;;53.00;43.00;;;;;11.53;100.00;101106.22;5114442;27;45206;-79
2022/03/03 08:22:59;;;;;;;;;50.50;42.00;;;;;10.42;100.00;100910.28;5128724;27;45904;-80
2022/03/03 08:25:25;;;;;;;;;56.25;43.25;;;;;11.57;100.00;101106.91;5118613;27;45042;-80
2022/03/03 08:27:52;;;;;;;;;53.50;42.75;;;;;10.96;100.00;101002.91;5108809;27;45277;-79
2022/03/03 08:30:18;;;;;;;;;50.50;39.25;;;;;11.49;100.00;101077.44;5126620;27;45164;-78
2022/03/03 08:32:50;;;;;;;;;53.75;44.50;;;;;11.61;100.00;101098.44;5116076;27;45436;-78
2022/03/03 08:35:18;;;;;;;;;49.75;40.00;;;;;11.28;100.00;101046.19;5111502;27;45158;-80
2022/03/03 08:38:05;;;;;;;;;52.75;42.50;;;;;11.29;100.00;101043.34;5115476;27;45184;-78
2022/03/03 08:40:31;;;;;;;;;58.25;43.75;;;;;11.51;100.00;101080.94;5116727;27;45104;-79
2022/03/03 08:43:00;;;;;;;;;53.50;40.00;;;;;11.56;100.00;101075.22;5101034;27;46047;-79
2022/03/03 08:45:29;;;;;;;;;53.50;42.50;;;;;11.70;100.00;101095.06;5119244;27;45342;-78
2022/03/03 08:48:03;;;;;;;;;54.25;42.25;;;;;11.65;100.00;101086.34;5127202;27;45084;-78
2022/03/03 08:50:31;;;;;;;;;53.00;42.50;;;;;11.78;100.00;101112.78;5127385;27;45368;-78
2022/03/03 08:52:58;;;;;;;;;54.00;42.75;;;;;11.70;100.00;101088.75;5098704;27;46724;-78
2022/03/03 08:55:26;;;;;;;;;56.75;43.50;;;;;11.83;100.00;101111.53;5112226;27;45041;-77
2022/03/03 08:57:52;;;;;;;;;59.50;45.00;;;;;11.84;100.00;101107.81;5101926;27;45104;-81
2022/03/03 09:00:17;;;;;;;;;54.00;42.25;;;;;11.88;100.00;101133.91;5087940;27;45148;-80
2022/03/03 09:02:43;;;;;;;;;59.00;45.00;;;;;11.78;100.00;101093.72;5106880;27;45885;-80
2022/03/03 09:05:10;;;;;;;;;55.50;44.50;;;;;10.61;100.00;100904.56;5100571;27;45060;-85
2022/03/03 09:07:35;;;;;;;;;51.25;42.50;;;;;11.78;100.00;101086.41;5111571;27;45246;-84
2022/03/03 09:10:01;;;;;;;;;54.25;42.25;;;;;11.51;100.00;101040.13;5077413;28;45136;-86
2022/03/03 09:12:27;;;;;;;;;56.00;42.75;;;;;10.71;100.00;100916.56;5094369;27;45124;-86
2022/03/03 09:14:52;;;;;;;;;53.50;43.00;;;;;11.66;100.00;101058.16;5100339;27;44950;-85
2022/03/03 09:17:18;;;;;;;;;55.75;41.75;;;;;11.61;100.00;101051.25;5110390;27;45340;-84
2022/03/03 09:19:43;;;;;;;;;61.00;44.75;;;;;10.69;100.00;100893.16;5110653;27;45315;-86
2022/03/03 09:22:09;;;;;;;;;56.75;46.50;;;;;11.33;100.00;100981.44;5108914;27;47611;-85
2022/03/03 09:24:34;;;;;;;;;52.25;39.25;;;;;12.06;100.00;101115.41;5100632;27;45060;-85
2022/03/03 09:27:00;;;;;;;;;55.00;45.00;;;;;11.73;100.00;101058.59;5085254;28;45200;-85
2022/03/03 09:29:27;;;;;;;;;57.00;45.75;;;;;11.59;100.00;101034.13;5094867;27;45277;-86
2022/03/03 09:31:53;;;;;;;;;48.50;40.50;;;;;12.03;100.00;101093.84;5110529;27;46158;-85
2022/03/03 09:34:18;;;;;;;;;55.00;43.50;;;;;11.84;100.00;101057.91;5105049;27;45203;-86
2022/03/03 09:36:43;;;;;;;;;57.75;41.50;;;;;10.56;100.00;100838.72;5110807;27;45142;-85
2022/03/03 09:39:09;;;;;;;;;55.00;45.00;;;;;12.19;100.00;101118.22;5098257;27;45354;-85
2022/03/03 09:41:34;;;;;;;;;33.50;27.50;;;;;11.47;100.00;100980.50;5090065;27;45686;-85
2022/03/03 09:44:00;;;;;;;;;54.25;43.75;;;;;12.25;100.00;101114.19;5089441;27;45135;-86
2022/03/03 09:46:25;;;;;;;;;53.75;43.75;;;;;11.98;100.00;101063.31;5101911;27;45200;-86
2022/03/03 09:48:51;;;;;;;;;57.00;45.75;;;;;12.28;100.00;101103.94;5096960;27;45060;-79
2022/03/03 09:51:16;;;;;;;;;51.00;41.00;;;;;12.26;100.00;101103.16;5106496;27;46256;-78
2022/03/03 09:53:42;;;;;;;;;50.75;42.50;;;;;12.33;100.00;101109.09;5097781;27;45182;-79
2022/03/03 09:56:08;;;;;;;;;53.25;43.00;;;;;12.33;100.00;101106.38;5103080;27;45299;-80
2022/03/03 09:58:34;;;;;;;;;54.25;42.75;;;;;12.33;100.00;101117.28;5118750;27;45042;-81
2022/03/03 10:00:59;;;;;;;;;55.00;43.00;;;;;11.46;100.00;100962.44;5113523;27;45327;-79
2022/03/03 10:03:35;;;;;;;;;54.50;42.00;;;;;12.10;100.00;101058.88;5111564;27;45368;-78
2022/03/03 10:06:01;;;;;;;;;53.25;41.00;;;;;12.39;100.00;101105.94;5121569;27;45163;-80
2022/03/03 10:08:29;;;;;;;;;50.75;40.00;;;;;12.29;100.00;101088.47;5116850;27;45444;-80
2022/03/03 10:10:57;;;;;;;;;51.50;41.00;;;;;11.91;100.00;101018.38;5092150;27;47872;-80
2022/03/03 10:13:23;;;;;;;;;50.25;39.25;;;;;12.45;100.00;101100.06;5110033;27;45322;-80
2022/03/03 10:15:57;;;;;;;;;53.25;41.25;;;;;12.40;100.00;101092.19;5112997;27;45091;-80
2022/03/03 10:18:24;;;;;;;;;46.25;37.75;;;;;12.22;100.00;101057.16;5125987;27;45129;-79
2022/03/03 10:21:02;;;;;;;;;54.00;43.75;;;;;12.43;100.00;101083.81;5126732;27;46215;-81
2022/03/03 10:23:28;;;;;;;;;55.00;44.50;;;;;12.51;100.00;101099.63;5118419;27;45211;-79
2022/03/03 10:25:56;;;;;;;;;54.00;43.50;;;;;12.54;100.00;101099.41;5103635;27;45124;-80
2022/03/03 10:28:24;;;;;;;;;50.75;41.25;;;;;12.57;100.00;101098.31;5110837;27;45123;-80
2022/03/03 10:30:54;;;;;;;;;53.75;42.25;;;;;12.60;100.00;101095.38;5114478;27;45467;-79
2022/03/03 10:33:22;;;;;;;;;54.25;41.25;;;;;12.61;100.00;101102.59;5125402;27;45274;-79
2022/03/03 10:36:17;;;;;;;;;53.00;43.00;;;;;12.41;100.00;101063.06;5111369;27;45218;-79
2022/03/03 10:39:00;;;;;;;;;54.00;41.50;;;;;12.62;100.00;101091.59;5127516;27;45192;-80
2022/03/03 10:41:38;;;;;;;;;55.75;45.25;;;;;12.47;100.00;101070.84;5126958;27;45297;-80
2022/03/03 10:44:29;;;;;;;;;58.50;45.50;;;;;12.64;100.00;101096.94;5098225;27;45201;-80
2022/03/03 10:47:07;;;;;;;;;52.50;44.00;;;;;12.64;100.00;101094.19;5121306;27;45157;-82
2022/03/03 10:49:35;;;;;;;;;57.25;45.25;;;;;12.11;100.00;101006.09;5121844;27;45243;-82
2022/03/03 10:52:20;;;;;;;;;58.25;45.25;;;;;12.68;100.00;101095.75;5120310;27;45919;-81
2022/03/03 10:55:01;;;;;;;;;58.50;46.00;;;;;12.64;100.00;101080.56;5114872;27;45264;-78
2022/03/03 10:57:38;;;;;;;;;55.25;43.00;;;;;12.75;100.00;101087.97;5096109;27;45097;-79
2022/03/03 11:00:14;;;;;;;;;56.50;43.25;;;;;12.75;100.00;101097.03;5096370;27;45155;-78
2022/03/03 11:02:43;;;;;;;;;59.00;44.50;;;;;12.76;100.00;101087.88;5077178;28;47272;-82
2022/03/03 11:05:10;;;;;;;;;59.50;45.75;;;;;12.51;100.00;101041.47;5089732;27;45413;-78